Angora, Minnesota
Current Conditions -  °F | °C
As of 8:15 AM on Thursday 29 Jan 2015 (Local Time) from KCQM Reporting Station
Overcast Overcast  
Wind Chill: 13°   Ceiling: 1200
Heat Index: 21°   Visibility: 10mi
Dew Point: 18°   Wind: 7mph
Humidity: 86%   Direction: 310°NW
Pressure: 30.08"   Gusts: 18mph
Location:  47.77°N, 92.63°W
Report Text: KCQM 291415Z AUTO 31006G16KT 10SM OVC012 M06/M08 A3008 RMK AO2
Loading
Personal Weather Stations






























Interactive Weather Map New forecast layout! Learn more

10-Day Weather Forecast

Advertisements
Track Severe Weather on mobile